aviador You're here:

KMYL Decoded Metar

MCCALL in ID, USA
Report Time2017-10-19 20:51:00
UTC Time2017-10-19 21:52:51
Flight Rules vfr VFR
Wind180° at 11 Gusting to 20 kt
W.Decomp.*RWY 16: 11.0 kt HW 0.6 kt RCW
W.Rank180° ranks 2
Current wind is above 180° avg. (7.3)
Visibility9999 m
Phenomena:N/A
Clouds:N/A
Expected CloudBase > 9,200 ft AGL from Temp-Dew spread
CeilingNone
Temp17°C (ISA +12)
Dew Point-6°C (20% RH)
AAT10.3°C
QNH1008 hPa
Density Alt6,647 ft
Elevation5,030 ft
Report Wrong Elevation
Raw Report
KMYL 192051Z AUTO 18011G20KT 10SM CLR 17/M06 A2977 RMK AO2 SLP066
T01671056 58021=

Extra information for KMYL:More info

Metar Taf Metar & Taf Last 4 Metars F.Rules Stats Wind Profile Meteogram Temp Stats Airport Information Weather charts Add Link Nearby VenuesMetar ALERT Operation Metar Decoded Social comments

AIRNAV info for KMYL